Time;durP1;ratioP1;P1;durP2;ratioP2;P2;SDS_P1;SDS_P2;PMS_P1;PMS_P2;Temp;Humidity;BMP_temperature;BMP_pressure;BME280_temperature;BME280_humidity;BME280_pressure;Samples;Min_cycle;Max_cycle;Signal;HPM_P1;HPM_P2
2022/06/23 00:02:30;;;;;;;5.97;2.80;;;20.20;70.70;;;;;;5032027;28;20030;-73
2022/06/23 00:04:59;;;;;;;7.57;2.72;;;20.10;71.20;;;;;;5032016;28;20440;-74
2022/06/23 00:07:28;;;;;;;5.68;2.90;;;20.10;71.40;;;;;;5032091;28;20040;-73
2022/06/23 00:09:57;;;;;;;4.38;2.88;;;20.10;71.10;;;;;;5031389;28;20029;-74
2022/06/23 00:12:36;;;;;;;8.00;3.05;;;20.20;71.70;;;;;;5031938;28;20040;-72
2022/06/23 00:15:01;;;;;;;7.85;3.28;;;20.20;72.40;;;;;;5032279;28;20472;-72
2022/06/23 00:17:37;;;;;;;4.22;2.67;;;20.10;72.60;;;;;;5030874;28;20528;-73
2022/06/23 00:20:15;;;;;;;6.45;2.72;;;20.00;73.30;;;;;;5031747;28;20115;-73
2022/06/23 00:22:45;;;;;;;4.60;2.53;;;20.00;73.70;;;;;;5031751;28;20033;-73
2022/06/23 00:25:22;;;;;;;5.75;3.05;;;19.90;74.20;;;;;;5031710;28;20119;-72
2022/06/23 00:27:47;;;;;;;3.88;2.35;;;19.80;74.30;;;;;;5032041;28;20080;-72
2022/06/23 00:30:27;;;;;;;4.25;2.47;;;19.70;75.30;;;;;;5030551;28;20363;-73
2022/06/23 00:32:52;;;;;;;7.90;3.00;;;19.70;75.30;;;;;;5031590;28;20049;-74
2022/06/23 00:35:19;;;;;;;4.05;2.80;;;19.60;75.80;;;;;;5031281;28;20464;-73
2022/06/23 00:37:49;;;;;;;6.50;2.97;;;19.60;76.30;;;;;;5023878;28;20032;-73
2022/06/23 00:40:22;;;;;;;5.63;2.92;;;19.50;77.30;;;;;;5040339;28;20024;-74
2022/06/23 00:42:52;;;;;;;6.85;3.17;;;19.40;77.50;;;;;;5031503;28;20087;-73
2022/06/23 00:45:27;;;;;;;7.00;3.47;;;19.40;78.50;;;;;;5030308;28;20100;-73
2022/06/23 00:48:16;;;;;;;7.05;3.25;;;19.30;78.90;;;;;;5031290;28;20025;-73
2022/06/23 00:50:51;;;;;;;5.55;2.90;;;19.30;79.30;;;;;;5030779;28;20033;-72
2022/06/23 00:53:30;;;;;;;8.60;3.55;;;19.20;79.90;;;;;;5031056;28;20417;-72
2022/06/23 00:56:12;;;;;;;7.00;3.05;;;19.20;80.10;;;;;;5029905;28;20037;-73
2022/06/23 00:58:57;;;;;;;6.40;3.15;;;19.20;80.60;;;;;;5031049;28;20055;-73
2022/06/23 01:01:37;;;;;;;7.32;3.33;;;19.10;81.20;;;;;;5030964;28;20112;-73
2022/06/23 01:04:09;;;;;;;8.13;3.42;;;19.00;82.20;;;;;;5029885;28;20083;-73
2022/06/23 01:06:41;;;;;;;7.70;3.17;;;19.00;82.20;;;;;;5031526;28;20104;-73
2022/06/23 01:09:22;;;;;;;5.75;3.45;;;19.00;82.40;;;;;;5030760;28;20324;-73
2022/06/23 01:12:04;;;;;;;5.82;3.00;;;18.90;82.30;;;;;;5030891;28;20116;-73
2022/06/23 01:14:48;;;;;;;6.82;3.78;;;18.90;82.60;;;;;;5030985;28;20052;-73
2022/06/23 01:17:28;;;;;;;7.95;3.53;;;18.90;83.90;;;;;;5030821;28;20026;-74
2022/06/23 01:19:56;;;;;;;7.28;3.90;;;18.80;84.10;;;;;;5030683;28;20041;-73
2022/06/23 01:22:39;;;;;;;5.15;3.30;;;18.80;84.60;;;;;;5030754;28;20029;-73
2022/06/23 01:25:16;;;;;;;4.50;3.25;;;18.70;85.10;;;;;;5030794;28;20244;-73
2022/06/23 01:28:07;;;;;;;9.50;4.35;;;18.70;85.60;;;;;;5031310;28;20116;-73
2022/06/23 01:30:48;;;;;;;6.82;3.50;;;18.70;85.60;;;;;;5029742;28;20030;-74
2022/06/23 01:33:24;;;;;;;7.38;3.60;;;18.60;86.10;;;;;;5030482;28;20079;-74
2022/06/23 01:36:23;;;;;;;5.60;3.50;;;18.60;86.20;;;;;;5022066;28;20041;-73
2022/06/23 01:39:20;;;;;;;7.28;3.40;;;18.60;87.00;;;;;;5010718;28;20037;-73
2022/06/23 01:41:57;;;;;;;5.43;3.38;;;18.50;86.80;;;;;;5010826;28;20045;-73
2022/06/23 01:44:45;;;;;;;6.63;3.63;;;18.50;87.40;;;;;;5009775;28;20026;-73
2022/06/23 01:47:22;;;;;;;6.30;3.90;;;18.40;87.30;;;;;;5010830;28;20921;-73
2022/06/23 01:49:51;;;;;;;4.97;3.38;;;18.30;88.30;;;;;;5010744;28;20145;-72
2022/06/23 01:52:19;;;;;;;8.82;3.75;;;18.30;88.80;;;;;;5010668;28;20049;-72
2022/06/23 01:54:52;;;;;;;9.30;4.20;;;18.20;89.10;;;;;;5011137;28;20022;-73
2022/06/23 01:57:42;;;;;;;5.78;3.92;;;18.20;89.50;;;;;;5010985;28;20236;-72
2022/06/23 02:00:17;;;;;;;9.82;4.20;;;18.10;89.90;;;;;;5010891;28;20108;-73
2022/06/23 02:02:43;;;;;;;6.63;3.90;;;18.10;90.10;;;;;;5012332;28;20041;-75
2022/06/23 02:05:27;;;;;;;7.00;3.65;;;18.10;90.00;;;;;;5014667;28;20029;-73
2022/06/23 02:08:22;;;;;;;9.77;3.60;;;18.10;90.40;;;;;;5014420;28;20030;-74
2022/06/23 02:11:11;;;;;;;11.98;4.97;;;18.10;90.40;;;;;;5013552;28;20088;-73
2022/06/23 02:13:48;;;;;;;10.75;4.35;;;18.30;90.10;;;;;;5013395;28;20053;-74
2022/06/23 02:16:38;;;;;;;6.28;4.03;;;18.30;90.20;;;;;;5014402;28;20026;-73
2022/06/23 02:19:28;;;;;;;8.88;4.60;;;18.40;89.80;;;;;;5014221;28;20026;-72
2022/06/23 02:22:05;;;;;;;5.97;4.25;;;18.40;90.10;;;;;;5014672;28;20321;-73
2022/06/23 02:24:34;;;;;;;9.40;4.25;;;18.30;90.30;;;;;;5014222;28;20121;-72
2022/06/23 02:27:20;;;;;;;8.40;3.65;;;18.30;90.50;;;;;;5014146;28;20050;-72
2022/06/23 02:30:12;;;;;;;7.28;4.10;;;18.20;90.60;;;;;;5014597;28;20391;-73
2022/06/23 02:32:43;;;;;;;8.73;3.95;;;18.10;90.90;;;;;;5014416;28;20030;-73
2022/06/23 02:35:19;;;;;;;6.53;4.28;;;18.00;91.10;;;;;;5014123;28;20046;-72
2022/06/23 02:38:08;;;;;;;6.32;4.57;;;18.00;91.30;;;;;;5014144;28;20417;-73
2022/06/23 02:40:40;;;;;;;7.68;4.80;;;18.10;91.10;;;;;;5013948;28;20049;-76
2022/06/23 02:43:12;;;;;;;10.45;4.28;;;18.20;91.00;;;;;;5013936;28;20033;-73
2022/06/23 02:45:59;;;;;;;6.65;4.55;;;18.20;91.20;;;;;;5014651;28;20029;-74
2022/06/23 02:48:54;;;;;;;9.38;4.45;;;18.10;91.30;;;;;;5013844;28;20037;-73
2022/06/23 02:51:51;;;;;;;6.75;4.10;;;18.00;91.50;;;;;;5013530;28;20026;-74
2022/06/23 02:55:01;;;;;;;8.50;4.82;;;17.90;91.60;;;;;;5013459;28;20034;-73
2022/06/23 02:57:33;;;;;;;10.40;5.00;;;18.00;91.30;;;;;;5030985;28;20069;-73
2022/06/23 03:00:10;;;;;;;8.10;4.80;;;18.10;91.30;;;;;;5016451;28;20125;-73
2022/06/23 03:02:58;;;;;;;7.38;4.35;;;18.10;91.30;;;;;;5013754;28;20049;-73
2022/06/23 03:06:18;;;;;;;8.43;4.65;;;18.20;91.50;;;;;;5013695;28;20372;-73
2022/06/23 03:08:59;;;;;;;7.43;4.45;;;18.10;91.60;;;;;;5013605;28;20030;-73
2022/06/23 03:11:52;;;;;;;6.00;4.25;;;18.10;91.50;;;;;;5012347;28;20033;-73
2022/06/23 03:14:55;;;;;;;9.73;5.18;;;18.10;91.40;;;;;;5012609;28;20120;-72
2022/06/23 03:17:24;;;;;;;7.68;4.72;;;18.10;91.60;;;;;;5013389;28;20113;-74
2022/06/23 03:20:08;;;;;;;6.97;5.07;;;18.10;91.40;;;;;;5012263;28;20475;-73
2022/06/23 03:22:49;;;;;;;10.07;4.93;;;18.00;91.50;;;;;;5013293;28;20041;-73
2022/06/23 03:25:32;;;;;;;8.68;4.93;;;18.10;91.60;;;;;;5013079;28;20018;-73
2022/06/23 03:28:19;;;;;;;9.93;5.10;;;18.10;91.30;;;;;;5013490;28;20022;-73
2022/06/23 03:30:52;;;;;;;6.03;4.50;;;18.10;91.60;;;;;;5013071;28;20452;-72
2022/06/23 03:33:21;;;;;;;7.35;4.57;;;18.00;91.60;;;;;;5012693;28;20368;-73
2022/06/23 03:35:57;;;;;;;10.15;5.35;;;18.00;91.50;;;;;;5013239;28;20284;-72
2022/06/23 03:41:36;;;;;;;8.13;5.10;;;18.00;91.60;;;;;;5011674;28;20424;-73
2022/06/23 03:41:37;;;;;;;10.10;5.47;;;17.90;92.00;;;;;;5012654;28;20080;-73
2022/06/23 03:44:41;;;;;;;10.68;5.10;;;17.90;92.00;;;;;;5011769;28;20329;-74
2022/06/23 03:47:26;;;;;;;7.03;5.15;;;17.90;92.30;;;;;;5016397;28;20040;-74
2022/06/23 03:49:55;;;;;;;7.20;4.47;;;17.80;92.60;;;;;;5011618;28;20439;-73
2022/06/23 03:52:29;;;;;;;7.72;5.00;;;17.80;92.70;;;;;;5012749;28;20125;-73
2022/06/23 03:55:07;;;;;;;8.98;4.97;;;17.70;92.70;;;;;;5012941;28;20036;-72
2022/06/23 03:57:47;;;;;;;10.15;4.95;;;17.60;92.90;;;;;;5012614;28;20134;-72
2022/06/23 04:00:32;;;;;;;8.57;4.55;;;17.50;93.10;;;;;;5012495;28;20048;-74
2022/06/23 04:03:11;;;;;;;9.57;4.60;;;17.50;92.90;;;;;;5011406;28;20479;-72
2022/06/23 04:05:55;;;;;;;7.60;4.43;;;17.50;93.20;;;;;;5012374;28;20113;-73
2022/06/23 04:08:23;;;;;;;10.50;4.78;;;17.50;93.30;;;;;;5012450;28;20059;-72
2022/06/23 04:10:51;;;;;;;9.77;4.78;;;17.50;93.40;;;;;;5011196;28;20030;-72
2022/06/23 04:13:38;;;;;;;7.00;4.47;;;17.40;93.60;;;;;;5011490;28;20038;-72
2022/06/23 04:16:11;;;;;;;12.52;5.25;;;17.40;93.60;;;;;;5012034;28;20459;-72
2022/06/23 04:18:47;;;;;;;10.85;5.45;;;17.60;93.30;;;;;;5011598;28;20575;-73
2022/06/23 04:21:19;;;;;;;7.60;5.13;;;17.70;93.10;;;;;;5012129;28;20079;-74
2022/06/23 04:24:16;;;;;;;10.23;4.97;;;17.70;93.00;;;;;;5010866;28;20041;-73
2022/06/23 04:26:46;;;;;;;9.18;5.60;;;17.80;92.70;;;;;;5010811;28;20057;-74
2022/06/23 04:29:26;;;;;;;10.73;5.30;;;17.80;92.90;;;;;;5011888;28;20419;-74
2022/06/23 04:32:14;;;;;;;23.13;5.90;;;17.80;93.10;;;;;;5011824;28;20046;-72
2022/06/23 04:34:54;;;;;;;10.85;4.88;;;17.80;93.30;;;;;;5011681;28;20052;-71
2022/06/23 04:37:31;;;;;;;14.63;5.63;;;17.80;93.50;;;;;;5011812;28;20047;-74
2022/06/23 04:40:12;;;;;;;11.57;5.25;;;17.80;93.30;;;;;;5010872;28;20054;-72
2022/06/23 04:42:49;;;;;;;11.02;5.57;;;17.80;93.30;;;;;;5012034;28;20046;-73
2022/06/23 04:45:37;;;;;;;10.23;5.07;;;17.90;93.20;;;;;;5011637;28;20203;-73
2022/06/23 04:48:11;;;;;;;12.20;4.57;;;17.90;93.20;;;;;;5010306;28;20034;-73
2022/06/23 04:50:45;;;;;;;16.25;4.43;;;18.00;93.20;;;;;;5010522;28;20044;-73
2022/06/23 04:53:44;;;;;;;12.63;4.72;;;18.00;93.00;;;;;;5011477;28;20452;-73
2022/06/23 04:56:34;;;;;;;10.35;4.32;;;18.10;93.00;;;;;;5011227;28;20038;-72
2022/06/23 04:59:21;;;;;;;8.40;4.25;;;18.20;93.00;;;;;;5010450;28;20101;-74
2022/06/23 05:01:49;;;;;;;18.33;4.75;;;18.20;92.70;;;;;;5011211;28;20036;-73
2022/06/23 05:04:29;;;;;;;9.35;4.07;;;18.20;92.50;;;;;;5011328;28;20487;-72
2022/06/23 05:06:58;;;;;;;7.28;4.18;;;18.30;92.30;;;;;;5011593;28;20026;-74
2022/06/23 05:09:39;;;;;;;11.60;4.30;;;18.30;92.30;;;;;;5011223;28;20030;-74
2022/06/23 05:12:14;;;;;;;10.65;4.25;;;18.40;92.40;;;;;;5011237;28;20022;-73
2022/06/23 05:15:15;;;;;;;8.02;4.38;;;18.40;92.10;;;;;;5010064;28;20109;-73
2022/06/23 05:17:54;;;;;;;8.73;4.03;;;18.60;92.10;;;;;;5011533;28;20034;-73
2022/06/23 05:20:40;;;;;;;6.15;3.80;;;18.60;91.80;;;;;;5011015;28;20034;-73
2022/06/23 05:23:19;;;;;;;6.93;3.95;;;18.80;91.60;;;;;;5010852;28;20061;-73
2022/06/23 05:25:47;;;;;;;11.15;4.00;;;18.90;91.60;;;;;;5011062;28;20041;-73
2022/06/23 05:28:22;;;;;;;9.27;4.57;;;18.90;91.50;;;;;;5010700;28;20026;-73
2022/06/23 05:30:52;;;;;;;7.88;3.60;;;18.90;91.40;;;;;;5010885;28;20110;-72
2022/06/23 05:33:23;;;;;;;9.52;3.80;;;19.00;91.40;;;;;;5010491;28;20120;-73
2022/06/23 05:36:33;;;;;;;10.75;4.10;;;19.10;91.20;;;;;;5010580;28;20219;-73
2022/06/23 05:39:13;;;;;;;14.73;4.18;;;19.10;91.00;;;;;;5019870;28;20053;-74
2022/06/23 05:41:45;;;;;;;7.97;3.40;;;19.20;90.80;;;;;;5010612;28;20036;-73
2022/06/23 05:44:32;;;;;;;10.45;3.90;;;19.20;90.80;;;;;;5009116;28;20121;-73
2022/06/23 05:47:00;;;;;;;15.88;4.85;;;19.30;90.70;;;;;;5009300;28;20084;-72
2022/06/23 05:49:41;;;;;;;10.73;3.92;;;19.40;90.60;;;;;;5010657;28;20129;-73
2022/06/23 05:52:14;;;;;;;7.53;3.85;;;19.40;90.70;;;;;;5010868;28;20368;-74
2022/06/23 05:54:57;;;;;;;9.32;4.10;;;19.70;90.40;;;;;;5010863;28;20448;-73
2022/06/23 05:57:37;;;;;;;6.90;3.80;;;19.90;90.20;;;;;;5010530;28;20042;-74
2022/06/23 06:00:41;;;;;;;7.05;4.03;;;20.00;90.10;;;;;;5010549;28;20030;-73
2022/06/23 06:03:15;;;;;;;8.68;4.60;;;20.10;89.90;;;;;;4996871;28;20038;-74
2022/06/23 06:05:47;;;;;;;8.07;4.22;;;20.30;89.80;;;;;;5004539;28;20029;-72
2022/06/23 06:08:18;;;;;;;19.10;4.22;;;20.30;89.30;;;;;;5010373;28;20479;-73
2022/06/23 06:10:44;;;;;;;7.85;3.75;;;20.30;89.20;;;;;;5010073;28;20135;-73
2022/06/23 06:13:37;;;;;;;10.07;4.30;;;20.30;89.00;;;;;;5010360;28;20026;-72
2022/06/23 06:16:12;;;;;;;9.95;4.10;;;20.30;89.00;;;;;;5011589;28;20113;-73
2022/06/23 06:18:41;;;;;;;8.25;4.63;;;20.30;89.30;;;;;;5010636;28;20041;-73
2022/06/23 06:21:16;;;;;;;6.55;3.67;;;20.30;89.10;;;;;;5010429;28;20034;-74
2022/06/23 06:23:57;;;;;;;11.35;3.53;;;20.30;89.00;;;;;;5009103;28;20038;-72
2022/06/23 06:26:29;;;;;;;9.80;4.40;;;20.40;88.90;;;;;;5009123;28;20042;-71
2022/06/23 06:29:04;;;;;;;10.13;3.47;;;20.50;88.70;;;;;;5010006;28;20382;-71
2022/06/23 06:31:38;;;;;;;14.13;4.25;;;20.70;88.20;;;;;;5010113;28;20112;-72
2022/06/23 06:34:20;;;;;;;5.10;3.83;;;20.80;87.60;;;;;;5010078;28;20042;-71
2022/06/23 06:36:50;;;;;;;13.52;4.38;;;20.80;87.40;;;;;;5009375;28;20326;-72
2022/06/23 06:39:29;;;;;;;8.63;3.47;;;20.80;87.70;;;;;;5010012;28;20072;-72
2022/06/23 06:42:07;;;;;;;9.35;4.00;;;20.90;87.60;;;;;;5010079;28;20041;-71
2022/06/23 06:44:36;;;;;;;8.23;3.67;;;20.90;87.70;;;;;;5008796;28;20217;-72
2022/06/23 06:47:02;;;;;;;9.63;4.38;;;20.90;87.30;;;;;;5009894;28;20361;-72
2022/06/23 06:49:29;;;;;;;13.02;4.30;;;21.00;87.20;;;;;;5011123;28;20030;-73
2022/06/23 06:51:57;;;;;;;7.60;4.10;;;21.10;86.70;;;;;;5014017;28;20053;-72
2022/06/23 06:54:25;;;;;;;8.00;4.65;;;21.20;86.20;;;;;;5013675;28;20037;-72
2022/06/23 06:57:02;;;;;;;8.35;4.22;;;21.20;86.50;;;;;;5013766;28;20030;-72
2022/06/23 07:00:08;;;;;;;10.73;3.60;;;21.30;86.10;;;;;;5013553;28;20049;-72
2022/06/23 07:02:39;;;;;;;8.80;3.72;;;21.50;85.90;;;;;;5013161;28;20030;-72
2022/06/23 07:05:23;;;;;;;8.43;4.28;;;21.50;85.70;;;;;;5013423;28;20030;-72
2022/06/23 07:07:56;;;;;;;8.52;3.95;;;21.60;85.30;;;;;;5012923;28;20029;-73
2022/06/23 07:10:39;;;;;;;8.45;3.50;;;21.80;85.10;;;;;;5012840;28;20033;-72
2022/06/23 07:13:10;;;;;;;9.07;3.58;;;21.90;84.90;;;;;;5013174;28;20030;-72
2022/06/23 07:15:49;;;;;;;13.57;3.90;;;22.20;85.10;;;;;;5013522;28;20040;-73
2022/06/23 07:18:37;;;;;;;7.03;3.60;;;22.70;84.10;;;;;;5012879;28;20476;-73
2022/06/23 07:21:14;;;;;;;9.18;3.72;;;23.10;82.50;;;;;;5011626;28;20034;-73
2022/06/23 07:23:49;;;;;;;10.43;3.35;;;23.10;81.70;;;;;;5012819;28;20105;-73
2022/06/23 07:26:25;;;;;;;9.50;3.20;;;23.10;81.80;;;;;;5012910;28;20113;-72
2022/06/23 07:28:58;;;;;;;11.95;3.30;;;23.10;81.60;;;;;;5011611;28;20044;-72
2022/06/23 07:32:02;;;;;;;7.10;3.13;;;23.00;81.50;;;;;;5013067;28;20034;-72
2022/06/23 07:34:32;;;;;;;8.43;3.33;;;23.10;81.50;;;;;;5012695;28;20053;-71
2022/06/23 07:36:59;;;;;;;9.18;3.33;;;23.00;81.60;;;;;;5013057;28;20109;-73
2022/06/23 07:39:34;;;;;;;13.90;3.63;;;23.10;81.40;;;;;;5012747;28;20399;-73
2022/06/23 07:42:35;;;;;;;8.10;4.50;;;23.10;81.40;;;;;;5012510;28;20267;-73
2022/06/23 07:45:08;;;;;;;8.98;3.25;;;23.20;80.70;;;;;;5011183;28;20022;-73
2022/06/23 07:47:33;;;;;;;13.93;4.38;;;23.40;80.60;;;;;;5012501;28;20045;-73
2022/06/23 07:50:01;;;;;;;15.90;3.40;;;23.50;80.00;;;;;;5012568;28;20025;-73
2022/06/23 07:52:27;;;;;;;;;;;23.60;79.80;;;;;;5011851;28;20056;-74
2022/06/23 07:54:54;;;;;;;10.82;3.47;;;23.80;79.70;;;;;;5013037;28;20327;-74
2022/06/23 07:57:19;;;;;;;9.40;3.60;;;23.90;79.70;;;;;;5012600;28;20030;-72
2022/06/23 07:59:59;;;;;;;5.60;3.22;;;24.10;78.90;;;;;;5011210;28;20048;-72
2022/06/23 08:02:49;;;;;;;8.93;4.32;;;24.20;78.50;;;;;;5012268;28;20038;-72
2022/06/23 08:05:20;;;;;;;18.20;3.50;;;24.40;78.10;;;;;;5012416;28;20469;-73
2022/06/23 08:07:47;;;;;;;9.85;3.42;;;24.60;77.60;;;;;;5011994;28;20415;-73
2022/06/23 08:10:22;;;;;;;10.75;3.20;;;25.10;76.20;;;;;;5012106;28;20048;-73
2022/06/23 08:12:59;;;;;;;6.85;2.80;;;25.40;76.00;;;;;;5011617;28;20022;-73
2022/06/23 08:18:29;;;;;;;9.77;2.95;;;26.80;71.80;;;;;;5011970;28;20495;-74
2022/06/23 08:21:03;;;;;;;7.57;2.80;;;27.20;69.20;;;;;;5011654;28;20030;-73
2022/06/23 08:23:33;;;;;;;11.57;3.03;;;27.80;67.10;;;;;;5011737;28;20034;-75
2022/06/23 08:26:00;;;;;;;5.03;2.65;;;28.00;67.40;;;;;;5011698;28;20034;-74
2022/06/23 08:28:26;;;;;;;4.93;2.67;;;28.10;65.10;;;;;;5011552;28;20057;-74
2022/06/23 08:30:52;;;;;;;5.57;2.30;;;28.50;64.50;;;;;;5012052;28;20072;-72
2022/06/23 08:33:18;;;;;;;4.50;2.17;;;29.50;62.90;;;;;;5011967;28;20361;-73
2022/06/23 08:35:50;;;;;;;6.80;3.15;;;30.50;59.50;;;;;;5011975;28;20104;-71
2022/06/23 08:38:40;;;;;;;5.03;2.20;;;31.40;57.90;;;;;;5011456;28;20076;-72
2022/06/23 08:41:19;;;;;;;10.88;2.58;;;32.40;55.60;;;;;;5011466;28;20030;-73
2022/06/23 08:44:13;;;;;;;6.45;3.03;;;32.70;57.30;;;;;;5011585;28;20097;-72
2022/06/23 08:47:04;;;;;;;7.35;3.00;;;33.40;52.50;;;;;;5010559;28;20030;-72
2022/06/23 08:49:51;;;;;;;4.57;2.25;;;33.30;52.40;;;;;;5011372;28;20432;-71
2022/06/23 08:52:32;;;;;;;10.20;3.22;;;34.20;50.80;;;;;;5011606;28;20061;-73
2022/06/23 08:55:25;;;;;;;6.85;2.35;;;34.60;49.50;;;;;;5011648;28;20021;-71
2022/06/23 08:58:12;;;;;;;6.30;2.70;;;34.30;49.40;;;;;;5011392;28;20044;-72
2022/06/23 09:01:06;;;;;;;5.22;2.03;;;34.60;48.70;;;;;;5011433;28;20042;-71
2022/06/23 09:03:57;;;;;;;6.63;2.22;;;34.80;47.40;;;;;;5011121;28;20145;-72
2022/06/23 09:06:34;;;;;;;4.32;1.90;;;35.30;47.40;;;;;;5011071;28;20045;-71
2022/06/23 09:09:18;;;;;;;5.85;2.03;;;35.00;46.90;;;;;;5011005;28;20049;-72
2022/06/23 09:12:10;;;;;;;7.78;2.20;;;34.70;45.90;;;;;;5010636;28;20018;-72
2022/06/23 09:14:59;;;;;;;6.97;3.90;;;34.80;45.60;;;;;;5010935;28;20068;-72
2022/06/23 09:17:53;;;;;;;4.72;2.83;;;34.80;45.80;;;;;;5009750;28;20041;-72
2022/06/23 09:20:53;;;;;;;8.65;2.60;;;34.60;44.90;;;;;;5010991;28;20371;-71
2022/06/23 09:23:47;;;;;;;7.38;1.95;;;34.30;44.30;;;;;;5009652;28;20463;-72
2022/06/23 09:26:37;;;;;;;3.85;2.00;;;34.00;44.90;;;;;;5011007;28;20482;-72
2022/06/23 09:29:30;;;;;;;10.13;2.58;;;33.10;45.60;;;;;;5010787;28;20559;-71
2022/06/23 09:31:58;;;;;;;8.05;2.28;;;32.60;47.00;;;;;;5011068;28;20057;-71
2022/06/23 09:34:45;;;;;;;7.07;2.58;;;32.40;47.20;;;;;;5010978;28;20034;-71
2022/06/23 09:37:28;;;;;;;6.22;2.45;;;31.60;48.30;;;;;;5010885;28;20096;-72
2022/06/23 09:40:02;;;;;;;6.80;2.20;;;31.40;49.00;;;;;;5011160;28;20030;-72
2022/06/23 09:43:07;;;;;;;4.03;2.60;;;31.20;47.50;;;;;;5011013;28;20034;-73
2022/06/23 09:46:13;;;;;;;4.05;2.03;;;31.40;47.20;;;;;;5010939;28;20519;-73
2022/06/23 09:48:41;;;;;;;7.32;2.20;;;31.30;47.20;;;;;;5011002;28;20045;-72
2022/06/23 09:51:33;;;;;;;5.20;1.83;;;31.60;46.80;;;;;;5009607;28;20037;-73
2022/06/23 09:54:17;;;;;;;3.42;1.95;;;31.50;45.70;;;;;;5010764;28;20026;-73
2022/06/23 09:57:02;;;;;;;3.40;1.73;;;31.30;46.30;;;;;;5010520;28;20111;-73
2022/06/23 09:59:47;;;;;;;7.18;2.40;;;31.30;45.60;;;;;;5010403;28;20030;-72
2022/06/23 10:02:31;;;;;;;5.50;1.73;;;31.00;46.10;;;;;;5009765;28;20041;-72
2022/06/23 10:05:15;;;;;;;6.30;1.75;;;30.80;45.20;;;;;;5010940;28;20030;-73
2022/06/23 10:08:02;;;;;;;3.83;2.00;;;30.80;46.00;;;;;;5010830;28;20172;-74
2022/06/23 10:11:10;;;;;;;7.22;2.78;;;30.90;46.10;;;;;;5010562;28;20045;-72
2022/06/23 10:13:45;;;;;;;4.20;1.80;;;30.90;46.00;;;;;;5010210;28;20064;-72
2022/06/23 10:16:32;;;;;;;5.38;1.60;;;31.00;45.60;;;;;;5010352;28;20050;-72
2022/06/23 10:19:25;;;;;;;5.88;1.90;;;30.90;44.10;;;;;;5010707;28;20022;-72
2022/06/23 10:22:33;;;;;;;5.32;1.38;;;30.90;44.40;;;;;;5010583;28;20092;-72
2022/06/23 10:25:08;;;;;;;3.47;1.50;;;30.80;44.80;;;;;;5014109;28;20041;-73
2022/06/23 10:28:01;;;;;;;6.50;1.40;;;30.70;43.80;;;;;;5014607;28;20439;-71
2022/06/23 10:30:34;;;;;;;5.72;1.65;;;30.60;44.00;;;;;;5014026;28;20103;-72
2022/06/23 10:33:19;;;;;;;4.55;1.45;;;30.60;44.10;;;;;;5014214;28;20030;-72
2022/06/23 10:36:23;;;;;;;3.53;1.45;;;30.60;44.30;;;;;;5014337;28;20037;-71
2022/06/23 10:39:12;;;;;;;3.45;1.67;;;30.70;44.30;;;;;;5013107;28;20436;-72
2022/06/23 10:42:04;;;;;;;5.03;1.60;;;30.70;45.20;;;;;;5021507;28;20116;-72
2022/06/23 10:45:11;;;;;;;3.65;1.60;;;30.60;45.20;;;;;;4989477;28;20058;-73
2022/06/23 10:48:05;;;;;;;5.38;1.48;;;30.60;45.10;;;;;;5005530;28;20034;-73
2022/06/23 10:51:08;;;;;;;2.58;1.40;;;30.60;44.60;;;;;;4994354;28;20114;-73
2022/06/23 10:54:00;;;;;;;2.83;1.20;;;30.80;43.90;;;;;;5013695;28;20068;-73
2022/06/23 10:56:52;;;;;;;3.10;1.50;;;31.00;44.00;;;;;;5013508;28;20117;-72
2022/06/23 10:59:37;;;;;;;3.38;1.42;;;30.80;43.10;;;;;;5014172;28;20026;-73
2022/06/23 11:02:30;;;;;;;3.28;1.83;;;30.70;43.20;;;;;;5012526;28;20416;-71
2022/06/23 11:05:24;;;;;;;6.03;1.90;;;30.50;43.60;;;;;;5013237;28;20532;-73
2022/06/23 11:08:08;;;;;;;4.72;1.63;;;30.50;44.20;;;;;;5012155;28;20522;-72
2022/06/23 11:10:43;;;;;;;5.20;2.80;;;30.60;44.10;;;;;;5013597;28;20036;-72
2022/06/23 11:13:30;;;;;;;5.07;1.52;;;30.50;43.30;;;;;;5013470;28;20018;-72
2022/06/23 11:16:17;;;;;;;5.47;1.67;;;30.40;44.20;;;;;;5013743;28;20511;-72
2022/06/23 11:19:06;;;;;;;5.43;1.70;;;30.50;44.00;;;;;;5013232;28;20046;-72
2022/06/23 11:21:54;;;;;;;5.32;1.85;;;30.60;43.80;;;;;;5013726;28;20246;-72
2022/06/23 11:24:47;;;;;;;3.90;1.45;;;30.60;43.80;;;;;;5013079;28;20029;-72
2022/06/23 11:27:33;;;;;;;1.55;1.38;;;30.40;43.50;;;;;;5013055;28;20088;-73
2022/06/23 11:29:59;;;;;;;2.45;1.40;;;30.40;44.10;;;;;;5013000;28;20041;-72
2022/06/23 11:32:49;;;;;;;6.20;2.15;;;30.50;44.20;;;;;;5013154;28;20056;-73
2022/06/23 11:35:18;;;;;;;2.28;1.13;;;30.40;44.70;;;;;;5012272;28;20464;-73
2022/06/23 11:38:08;;;;;;;4.57;1.45;;;30.50;44.60;;;;;;5013007;28;20072;-73
2022/06/23 11:40:33;;;;;;;5.57;1.73;;;30.60;44.30;;;;;;5012666;28;20534;-72
2022/06/23 11:43:18;;;;;;;6.40;1.95;;;30.70;44.20;;;;;;5012403;28;20109;-71
2022/06/23 11:45:58;;;;;;;4.78;1.90;;;30.60;44.60;;;;;;5012851;28;20030;-72
2022/06/23 11:48:56;;;;;;;4.85;1.67;;;30.50;44.50;;;;;;5011654;28;20345;-71
2022/06/23 11:51:30;;;;;;;2.88;2.15;;;30.60;44.50;;;;;;5012822;28;20053;-73
2022/06/23 11:54:03;;;;;;;5.10;1.75;;;30.60;44.60;;;;;;5012588;28;20333;-72
2022/06/23 11:56:37;;;;;;;4.80;1.90;;;30.70;45.10;;;;;;5012157;28;20108;-72
2022/06/23 11:59:03;;;;;;;9.52;3.97;;;30.60;45.20;;;;;;5012437;28;20042;-72
2022/06/23 12:01:30;;;;;;;7.50;2.05;;;30.80;44.90;;;;;;5012780;28;20132;-72
2022/06/23 12:04:16;;;;;;;2.10;1.75;;;30.80;45.60;;;;;;5011710;28;20306;-73
2022/06/23 12:07:11;;;;;;;10.63;6.28;;;30.70;45.70;;;;;;5012442;28;20037;-73
2022/06/23 12:09:55;;;;;;;5.85;1.83;;;30.70;46.10;;;;;;5012412;28;20042;-73
2022/06/23 12:12:22;;;;;;;4.10;1.42;;;30.70;46.20;;;;;;5011184;28;20472;-74
2022/06/23 12:14:50;;;;;;;6.15;2.05;;;30.70;44.60;;;;;;5012259;28;20061;-71
2022/06/23 12:17:26;;;;;;;3.13;1.55;;;30.60;44.30;;;;;;5011177;28;20052;-73
2022/06/23 12:20:23;;;;;;;3.60;1.80;;;30.40;44.00;;;;;;5011991;28;20034;-72
2022/06/23 12:23:02;;;;;;;2.92;1.58;;;30.40;44.70;;;;;;5011960;28;20041;-72
2022/06/23 12:25:43;;;;;;;2.30;1.38;;;30.40;45.10;;;;;;5012089;28;20034;-72
2022/06/23 12:28:16;;;;;;;2.33;1.45;;;30.50;44.70;;;;;;5011738;28;20029;-72
2022/06/23 12:31:08;;;;;;;3.47;1.70;;;30.50;43.90;;;;;;5012648;28;20364;-73
2022/06/23 12:33:59;;;;;;;4.30;2.08;;;30.60;43.80;;;;;;5011863;28;20054;-73
2022/06/23 12:36:41;;;;;;;7.15;2.03;;;30.40;43.70;;;;;;5011895;28;20041;-72
2022/06/23 12:39:20;;;;;;;1.98;1.20;;;30.50;43.40;;;;;;5011697;28;20034;-73
2022/06/23 12:41:56;;;;;;;2.83;1.50;;;30.40;44.10;;;;;;5011675;28;20034;-72
2022/06/23 12:45:24;;;;;;;1.75;1.30;;;30.30;44.30;;;;;;5002013;28;20038;-72
2022/06/23 12:48:28;;;;;;;3.25;1.58;;;30.20;44.70;;;;;;5011449;28;20046;-74
2022/06/23 12:51:16;;;;;;;2.70;1.55;;;30.30;45.00;;;;;;4970133;28;20072;-73
2022/06/23 12:54:16;;;;;;;3.42;2.00;;;30.30;44.60;;;;;;4970326;28;20712;-72
2022/06/23 12:57:30;;;;;;;1.70;1.30;;;30.30;45.10;;;;;;5005101;28;20049;-73
2022/06/23 13:00:13;;;;;;;6.13;1.73;;;30.20;45.30;;;;;;5004859;28;20040;-73
2022/06/23 13:02:59;;;;;;;6.10;1.42;;;30.20;45.70;;;;;;5005128;28;20460;-73
2022/06/23 13:05:35;;;;;;;2.30;1.80;;;30.10;45.80;;;;;;5011434;28;20100;-72
2022/06/23 13:08:08;;;;;;;3.30;1.60;;;30.20;45.70;;;;;;5011301;28;20041;-72
2022/06/23 13:10:49;;;;;;;3.30;1.38;;;30.20;45.30;;;;;;5011239;28;20056;-72
2022/06/23 13:13:35;;;;;;;4.05;1.55;;;30.20;44.80;;;;;;5011144;28;20050;-72
2022/06/23 13:16:14;;;;;;;5.32;1.70;;;30.20;44.40;;;;;;5011002;28;20021;-73
2022/06/23 13:18:47;;;;;;;2.88;1.50;;;30.10;44.00;;;;;;5011561;28;20022;-72
2022/06/23 13:21:22;;;;;;;3.10;1.48;;;30.00;43.80;;;;;;5010975;28;20034;-72
2022/06/23 13:24:03;;;;;;;4.05;1.73;;;30.00;43.60;;;;;;5011061;28;20429;-72
2022/06/23 13:26:54;;;;;;;4.20;1.70;;;30.00;44.30;;;;;;5011087;28;20036;-72
2022/06/23 13:29:23;;;;;;;4.80;2.13;;;30.10;44.00;;;;;;5010786;28;20046;-71
2022/06/23 13:32:15;;;;;;;3.70;1.60;;;30.00;44.80;;;;;;5010931;28;20041;-71
2022/06/23 13:34:50;;;;;;;4.25;1.50;;;30.10;45.10;;;;;;5010759;28;20069;-71
2022/06/23 13:37:31;;;;;;;7.13;4.45;;;30.20;44.70;;;;;;5010968;28;20128;-72
2022/06/23 13:40:15;;;;;;;6.20;1.70;;;30.20;45.20;;;;;;5010262;28;20349;-72
2022/06/23 13:43:06;;;;;;;3.20;1.80;;;30.20;45.10;;;;;;5011229;28;20038;-71
2022/06/23 13:45:41;;;;;;;1.85;1.10;;;30.20;43.80;;;;;;5010889;28;20471;-73
2022/06/23 13:48:20;;;;;;;2.78;1.55;;;30.20;43.80;;;;;;5010693;28;20388;-71
2022/06/23 13:51:03;;;;;;;5.47;1.48;;;30.10;43.30;;;;;;5010724;28;20452;-71
2022/06/23 13:53:34;;;;;;;2.80;1.70;;;30.10;44.50;;;;;;5010810;28;20030;-73
2022/06/23 13:56:35;;;;;;;5.28;1.52;;;30.00;44.70;;;;;;5010924;28;20026;-72
2022/06/23 13:59:14;;;;;;;2.80;1.50;;;30.00;45.50;;;;;;5013231;28;20078;-73
2022/06/23 14:01:52;;;;;;;3.08;1.73;;;30.00;43.80;;;;;;5014576;28;20054;-71